Groton New London Airport Groton (New London) US
ICAO: KGON
IATA: GON
Category: Medium
Scheduled Services: No

Elevation: 9 ft
TransAlt. 18000 ft.

Airport Communications:
PROVIDENCE APP/DEP:125.75
ATIS:127
CLNC DEL:119.85
CTAF:125.6
GND:121.65
ARNG OPS:126.2
BRIDGEPORT RDO:122.1
TWR:125.6

KGON Zoom In..

Runways:

(A) RW 05 length 5000 ft width 150 ft
ILS 111.30 / hdg 48

(B) RW 15 length 4000 ft width 100 ft
---- / hdg 149

(C) RW 23 length 5000 ft width 150 ft
---- / hdg 228

(D) RW 33 length 4000 ft width 100 ft
---- / hdg 329

Location; KGON
Day. 24 / Time. 12.56 Zulu
* Altimeter: 30.09
* Temperature: 20° c. 68°f.
* Wind from: 020° Speed 10 kn with Gusts up to 17 kn.
Dewpoint: 08° c.
Visibility: 10 Statute Miles.
Clouds: Clear (automated report).

KGON 241256Z 02010G17KT 10SM CLR 20/08 A3009 RMK AO2 SLP188 T02000078 $


Wind From 020°
Speed 10 kn.

 
 
jpsmedia.com for Web Design SOUNDCLOUD worldairports.se 2018   terms of use